sensor_id;sensor_type;location;lat;lon;timestamp;temperature;humidity
52187;DHT22;38161;53.020;6.598;2023-11-18T00:00:27;1.30;99.90
52187;DHT22;38161;53.020;6.598;2023-11-18T00:02:53;1.30;99.90
52187;DHT22;38161;53.020;6.598;2023-11-18T00:05:19;1.30;99.90
52187;DHT22;38161;53.020;6.598;2023-11-18T00:07:45;1.30;99.90
52187;DHT22;38161;53.020;6.598;2023-11-18T00:10:11;1.30;99.90
52187;DHT22;38161;53.020;6.598;2023-11-18T00:12:37;1.30;99.90
52187;DHT22;38161;53.020;6.598;2023-11-18T00:15:08;1.30;99.90
52187;DHT22;38161;53.020;6.598;2023-11-18T00:17:37;1.20;99.90
52187;DHT22;38161;53.020;6.598;2023-11-18T00:20:03;1.20;99.90
52187;DHT22;38161;53.020;6.598;2023-11-18T00:22:37;1.20;99.90
52187;DHT22;38161;53.020;6.598;2023-11-18T00:25:03;1.10;99.90
52187;DHT22;38161;53.020;6.598;2023-11-18T00:27:36;1.20;99.90
52187;DHT22;38161;53.020;6.598;2023-11-18T00:30:03;1.20;99.90
52187;DHT22;38161;53.020;6.598;2023-11-18T00:32:31;1.10;99.90
52187;DHT22;38161;53.020;6.598;2023-11-18T00:34:57;1.20;99.90
52187;DHT22;38161;53.020;6.598;2023-11-18T00:37:23;1.20;99.90
52187;DHT22;38161;53.020;6.598;2023-11-18T00:39:49;1.20;99.90
52187;DHT22;38161;53.020;6.598;2023-11-18T00:42:15;1.50;99.90
52187;DHT22;38161;53.020;6.598;2023-11-18T00:44:41;1.20;99.90
52187;DHT22;38161;53.020;6.598;2023-11-18T00:47:07;1.10;99.90
52187;DHT22;38161;53.020;6.598;2023-11-18T00:49:33;1.20;99.90
52187;DHT22;38161;53.020;6.598;2023-11-18T00:51:59;1.20;99.90
52187;DHT22;38161;53.020;6.598;2023-11-18T00:54:25;1.20;99.90
52187;DHT22;38161;53.020;6.598;2023-11-18T00:56:52;1.30;99.90
52187;DHT22;38161;53.020;6.598;2023-11-18T00:59:18;1.30;99.90
52187;DHT22;38161;53.020;6.598;2023-11-18T01:01:44;1.40;99.90
52187;DHT22;38161;53.020;6.598;2023-11-18T01:04:10;1.40;99.90
52187;DHT22;38161;53.020;6.598;2023-11-18T01:06:36;1.50;99.90
52187;DHT22;38161;53.020;6.598;2023-11-18T01:09:02;1.50;99.90
52187;DHT22;38161;53.020;6.598;2023-11-18T01:11:28;1.50;99.90
52187;DHT22;38161;53.020;6.598;2023-11-18T01:14:02;1.60;99.90
52187;DHT22;38161;53.020;6.598;2023-11-18T01:16:28;1.60;99.90
52187;DHT22;38161;53.020;6.598;2023-11-18T01:18:55;1.60;99.90
52187;DHT22;38161;53.020;6.598;2023-11-18T01:21:21;1.70;99.90
52187;DHT22;38161;53.020;6.598;2023-11-18T01:23:47;1.70;99.90
52187;DHT22;38161;53.020;6.598;2023-11-18T01:26:14;1.70;99.90
52187;DHT22;38161;53.020;6.598;2023-11-18T01:28:41;1.80;99.90
52187;DHT22;38161;53.020;6.598;2023-11-18T01:31:11;1.80;99.90
52187;DHT22;38161;53.020;6.598;2023-11-18T01:33:37;1.80;99.90
52187;DHT22;38161;53.020;6.598;2023-11-18T01:36:06;1.80;99.90
52187;DHT22;38161;53.020;6.598;2023-11-18T01:38:34;1.90;99.90
52187;DHT22;38161;53.020;6.598;2023-11-18T01:41:00;1.90;99.90
52187;DHT22;38161;53.020;6.598;2023-11-18T01:43:27;1.80;99.90
52187;DHT22;38161;53.020;6.598;2023-11-18T01:45:53;1.90;99.90
52187;DHT22;38161;53.020;6.598;2023-11-18T01:48:23;1.90;99.90
52187;DHT22;38161;53.020;6.598;2023-11-18T01:50:52;1.90;99.90
52187;DHT22;38161;53.020;6.598;2023-11-18T01:53:20;2.00;99.90
52187;DHT22;38161;53.020;6.598;2023-11-18T01:55:45;2.00;99.90
52187;DHT22;38161;53.020;6.598;2023-11-18T01:58:14;2.00;99.90
52187;DHT22;38161;53.020;6.598;2023-11-18T02:00:45;2.00;99.90
52187;DHT22;38161;53.020;6.598;2023-11-18T02:03:12;2.00;99.90
52187;DHT22;38161;53.020;6.598;2023-11-18T02:05:39;2.00;99.90
52187;DHT22;38161;53.020;6.598;2023-11-18T02:08:05;2.00;99.90
52187;DHT22;38161;53.020;6.598;2023-11-18T02:10:36;2.00;99.90
52187;DHT22;38161;53.020;6.598;2023-11-18T02:13:24;2.00;99.90
52187;DHT22;38161;53.020;6.598;2023-11-18T02:16:04;2.10;99.90
52187;DHT22;38161;53.020;6.598;2023-11-18T02:18:32;2.00;99.90
52187;DHT22;38161;53.020;6.598;2023-11-18T02:20:59;2.00;99.90
52187;DHT22;38161;53.020;6.598;2023-11-18T02:23:26;2.10;99.90
52187;DHT22;38161;53.020;6.598;2023-11-18T02:25:54;2.00;99.90
52187;DHT22;38161;53.020;6.598;2023-11-18T02:28:21;2.10;99.90
52187;DHT22;38161;53.020;6.598;2023-11-18T02:30:50;2.00;99.90
52187;DHT22;38161;53.020;6.598;2023-11-18T02:36:01;2.00;99.90
52187;DHT22;38161;53.020;6.598;2023-11-18T02:38:35;2.00;99.90
52187;DHT22;38161;53.020;6.598;2023-11-18T02:41:08;2.00;99.90
52187;DHT22;38161;53.020;6.598;2023-11-18T02:43:36;2.00;99.90
52187;DHT22;38161;53.020;6.598;2023-11-18T02:46:04;2.00;99.90
52187;DHT22;38161;53.020;6.598;2023-11-18T02:48:32;2.00;99.90
52187;DHT22;38161;53.020;6.598;2023-11-18T02:51:01;2.00;99.90
52187;DHT22;38161;53.020;6.598;2023-11-18T02:53:27;2.00;99.90
52187;DHT22;38161;53.020;6.598;2023-11-18T02:55:53;2.00;99.90
52187;DHT22;38161;53.020;6.598;2023-11-18T02:58:20;2.00;99.90
52187;DHT22;38161;53.020;6.598;2023-11-18T03:00:46;2.00;99.90
52187;DHT22;38161;53.020;6.598;2023-11-18T03:03:12;2.00;99.90
52187;DHT22;38161;53.020;6.598;2023-11-18T03:05:39;2.00;99.90
52187;DHT22;38161;53.020;6.598;2023-11-18T03:08:05;2.00;99.90
52187;DHT22;38161;53.020;6.598;2023-11-18T03:10:34;2.10;99.90
52187;DHT22;38161;53.020;6.598;2023-11-18T03:13:01;2.10;99.90
52187;DHT22;38161;53.020;6.598;2023-11-18T03:15:28;2.00;99.90
52187;DHT22;38161;53.020;6.598;2023-11-18T03:17:54;2.10;99.90
52187;DHT22;38161;53.020;6.598;2023-11-18T03:20:22;2.10;99.90
52187;DHT22;38161;53.020;6.598;2023-11-18T03:22:49;2.10;99.90
52187;DHT22;38161;53.020;6.598;2023-11-18T03:25:16;2.10;99.90
52187;DHT22;38161;53.020;6.598;2023-11-18T03:27:43;2.10;99.90
52187;DHT22;38161;53.020;6.598;2023-11-18T03:30:10;2.20;99.90
52187;DHT22;38161;53.020;6.598;2023-11-18T03:32:37;2.20;99.90
52187;DHT22;38161;53.020;6.598;2023-11-18T03:35:05;2.20;99.90
52187;DHT22;38161;53.020;6.598;2023-11-18T03:37:37;2.20;99.90
52187;DHT22;38161;53.020;6.598;2023-11-18T03:40:08;2.20;99.90
52187;DHT22;38161;53.020;6.598;2023-11-18T03:42:34;2.30;99.90
52187;DHT22;38161;53.020;6.598;2023-11-18T03:45:01;2.30;99.90
52187;DHT22;38161;53.020;6.598;2023-11-18T03:47:27;2.30;99.90
52187;DHT22;38161;53.020;6.598;2023-11-18T03:49:53;2.30;99.90
52187;DHT22;38161;53.020;6.598;2023-11-18T03:52:21;2.30;99.90
52187;DHT22;38161;53.020;6.598;2023-11-18T03:54:47;2.40;99.90
52187;DHT22;38161;53.020;6.598;2023-11-18T03:57:13;2.40;99.90
52187;DHT22;38161;53.020;6.598;2023-11-18T03:59:40;2.40;99.90
52187;DHT22;38161;53.020;6.598;2023-11-18T04:02:08;2.40;99.90
52187;DHT22;38161;53.020;6.598;2023-11-18T04:04:37;2.50;99.90
52187;DHT22;38161;53.020;6.598;2023-11-18T04:07:03;2.50;99.90
52187;DHT22;38161;53.020;6.598;2023-11-18T04:09:30;2.50;99.90
52187;DHT22;38161;53.020;6.598;2023-11-18T04:11:56;2.50;99.90
52187;DHT22;38161;53.020;6.598;2023-11-18T04:14:30;2.60;99.90
52187;DHT22;38161;53.020;6.598;2023-11-18T04:16:58;2.60;99.90
52187;DHT22;38161;53.020;6.598;2023-11-18T04:19:24;2.60;99.90
52187;DHT22;38161;53.020;6.598;2023-11-18T04:21:50;2.60;99.90
52187;DHT22;38161;53.020;6.598;2023-11-18T04:24:16;2.60;99.90
52187;DHT22;38161;53.020;6.598;2023-11-18T04:26:42;2.60;99.90
52187;DHT22;38161;53.020;6.598;2023-11-18T04:29:08;2.70;99.90
52187;DHT22;38161;53.020;6.598;2023-11-18T04:31:34;2.70;99.90
52187;DHT22;38161;53.020;6.598;2023-11-18T04:34:03;2.70;99.90
52187;DHT22;38161;53.020;6.598;2023-11-18T04:36:30;2.70;99.90
52187;DHT22;38161;53.020;6.598;2023-11-18T04:38:57;2.80;99.90
52187;DHT22;38161;53.020;6.598;2023-11-18T04:41:22;2.80;99.90
52187;DHT22;38161;53.020;6.598;2023-11-18T04:43:49;2.80;99.90
52187;DHT22;38161;53.020;6.598;2023-11-18T04:46:15;2.80;99.90
52187;DHT22;38161;53.020;6.598;2023-11-18T04:48:42;2.80;99.90
52187;DHT22;38161;53.020;6.598;2023-11-18T04:51:08;2.90;99.90
52187;DHT22;38161;53.020;6.598;2023-11-18T04:53:34;2.90;99.90
52187;DHT22;38161;53.020;6.598;2023-11-18T04:56:00;2.90;99.90
52187;DHT22;38161;53.020;6.598;2023-11-18T04:58:26;2.90;99.90
52187;DHT22;38161;53.020;6.598;2023-11-18T05:00:52;2.90;99.90
52187;DHT22;38161;53.020;6.598;2023-11-18T05:03:18;4.40;99.90
52187;DHT22;38161;53.020;6.598;2023-11-18T05:05:43;3.00;99.90
52187;DHT22;38161;53.020;6.598;2023-11-18T05:08:21;3.00;99.90
52187;DHT22;38161;53.020;6.598;2023-11-18T05:10:48;3.00;99.90
52187;DHT22;38161;53.020;6.598;2023-11-18T05:13:15;3.00;99.90
52187;DHT22;38161;53.020;6.598;2023-11-18T05:15:46;3.00;99.90
52187;DHT22;38161;53.020;6.598;2023-11-18T05:18:13;3.00;99.90
52187;DHT22;38161;53.020;6.598;2023-11-18T05:20:44;3.10;99.90
52187;DHT22;38161;53.020;6.598;2023-11-18T05:23:11;3.10;99.90
52187;DHT22;38161;53.020;6.598;2023-11-18T05:25:41;3.10;99.90
52187;DHT22;38161;53.020;6.598;2023-11-18T05:28:09;3.10;99.90
52187;DHT22;38161;53.020;6.598;2023-11-18T05:30:41;3.10;99.90
52187;DHT22;38161;53.020;6.598;2023-11-18T05:33:08;3.20;99.90
52187;DHT22;38161;53.020;6.598;2023-11-18T05:35:36;3.20;99.90
52187;DHT22;38161;53.020;6.598;2023-11-18T05:38:02;3.20;99.90
52187;DHT22;38161;53.020;6.598;2023-11-18T05:40:31;3.20;99.90
52187;DHT22;38161;53.020;6.598;2023-11-18T05:42:57;3.20;99.90
52187;DHT22;38161;53.020;6.598;2023-11-18T05:45:24;3.20;99.90
52187;DHT22;38161;53.020;6.598;2023-11-18T05:48:02;3.20;99.90
52187;DHT22;38161;53.020;6.598;2023-11-18T05:50:29;3.30;99.90
52187;DHT22;38161;53.020;6.598;2023-11-18T05:52:55;3.30;99.90
52187;DHT22;38161;53.020;6.598;2023-11-18T05:55:21;3.30;99.90
52187;DHT22;38161;53.020;6.598;2023-11-18T05:57:47;3.30;99.90
52187;DHT22;38161;53.020;6.598;2023-11-18T06:00:14;3.30;99.90
52187;DHT22;38161;53.020;6.598;2023-11-18T06:02:45;3.40;99.90
52187;DHT22;38161;53.020;6.598;2023-11-18T06:05:10;3.40;99.90
52187;DHT22;38161;53.020;6.598;2023-11-18T06:07:38;3.40;99.90
52187;DHT22;38161;53.020;6.598;2023-11-18T06:10:06;3.40;99.90
52187;DHT22;38161;53.020;6.598;2023-11-18T06:12:32;3.50;99.90
52187;DHT22;38161;53.020;6.598;2023-11-18T06:14:59;3.40;99.90
52187;DHT22;38161;53.020;6.598;2023-11-18T06:17:25;3.50;99.90
52187;DHT22;38161;53.020;6.598;2023-11-18T06:19:51;3.50;99.90
52187;DHT22;38161;53.020;6.598;2023-11-18T06:22:16;3.50;99.90
52187;DHT22;38161;53.020;6.598;2023-11-18T06:24:43;3.50;99.90
52187;DHT22;38161;53.020;6.598;2023-11-18T06:27:10;3.50;99.90
52187;DHT22;38161;53.020;6.598;2023-11-18T06:29:36;3.80;99.90
52187;DHT22;38161;53.020;6.598;2023-11-18T06:32:02;3.60;99.90
52187;DHT22;38161;53.020;6.598;2023-11-18T06:34:29;3.60;99.90
52187;DHT22;38161;53.020;6.598;2023-11-18T06:36:55;3.60;99.90
52187;DHT22;38161;53.020;6.598;2023-11-18T06:39:21;3.60;99.90
52187;DHT22;38161;53.020;6.598;2023-11-18T06:41:55;3.70;99.90
52187;DHT22;38161;53.020;6.598;2023-11-18T06:44:21;3.70;99.90
52187;DHT22;38161;53.020;6.598;2023-11-18T06:46:49;3.70;99.90
52187;DHT22;38161;53.020;6.598;2023-11-18T06:49:17;3.70;99.90
52187;DHT22;38161;53.020;6.598;2023-11-18T06:51:43;3.70;99.90
52187;DHT22;38161;53.020;6.598;2023-11-18T06:54:12;3.70;99.90
52187;DHT22;38161;53.020;6.598;2023-11-18T06:56:43;3.80;99.90
52187;DHT22;38161;53.020;6.598;2023-11-18T06:59:14;3.70;99.90
52187;DHT22;38161;53.020;6.598;2023-11-18T07:01:43;3.70;99.90
52187;DHT22;38161;53.020;6.598;2023-11-18T07:04:09;3.80;99.90
52187;DHT22;38161;53.020;6.598;2023-11-18T07:06:38;3.80;99.90
52187;DHT22;38161;53.020;6.598;2023-11-18T07:09:05;3.80;99.90
52187;DHT22;38161;53.020;6.598;2023-11-18T07:11:41;3.80;99.90
52187;DHT22;38161;53.020;6.598;2023-11-18T07:14:11;3.80;99.90
52187;DHT22;38161;53.020;6.598;2023-11-18T07:16:40;3.70;99.90
52187;DHT22;38161;53.020;6.598;2023-11-18T07:19:07;3.80;99.90
52187;DHT22;38161;53.020;6.598;2023-11-18T07:21:34;3.80;99.90
52187;DHT22;38161;53.020;6.598;2023-11-18T07:24:00;3.80;99.90
52187;DHT22;38161;53.020;6.598;2023-11-18T07:26:28;3.80;99.90
52187;DHT22;38161;53.020;6.598;2023-11-18T07:28:54;3.80;99.90
52187;DHT22;38161;53.020;6.598;2023-11-18T07:31:20;3.80;99.90
52187;DHT22;38161;53.020;6.598;2023-11-18T07:33:46;3.80;99.90
52187;DHT22;38161;53.020;6.598;2023-11-18T07:36:18;3.80;99.90
52187;DHT22;38161;53.020;6.598;2023-11-18T07:38:47;3.80;99.90
52187;DHT22;38161;53.020;6.598;2023-11-18T07:41:13;3.80;99.90
52187;DHT22;38161;53.020;6.598;2023-11-18T07:44:05;3.90;99.90
52187;DHT22;38161;53.020;6.598;2023-11-18T07:46:31;3.90;99.90
52187;DHT22;38161;53.020;6.598;2023-11-18T07:48:57;3.90;99.90
52187;DHT22;38161;53.020;6.598;2023-11-18T07:51:23;3.90;99.90
52187;DHT22;38161;53.020;6.598;2023-11-18T07:53:50;4.00;99.90
52187;DHT22;38161;53.020;6.598;2023-11-18T07:56:16;3.90;99.90
52187;DHT22;38161;53.020;6.598;2023-11-18T07:58:45;3.90;99.90
52187;DHT22;38161;53.020;6.598;2023-11-18T08:01:13;4.00;99.90
52187;DHT22;38161;53.020;6.598;2023-11-18T08:03:39;4.00;99.90
52187;DHT22;38161;53.020;6.598;2023-11-18T08:06:07;4.00;99.90
52187;DHT22;38161;53.020;6.598;2023-11-18T08:08:34;4.00;99.90
52187;DHT22;38161;53.020;6.598;2023-11-18T08:11:00;4.00;99.90
52187;DHT22;38161;53.020;6.598;2023-11-18T08:13:25;4.00;99.90
52187;DHT22;38161;53.020;6.598;2023-11-18T08:15:52;4.10;99.90
52187;DHT22;38161;53.020;6.598;2023-11-18T08:18:18;4.10;99.90
52187;DHT22;38161;53.020;6.598;2023-11-18T08:20:47;4.10;99.90
52187;DHT22;38161;53.020;6.598;2023-11-18T08:23:12;4.10;99.90
52187;DHT22;38161;53.020;6.598;2023-11-18T08:25:41;4.10;99.90
52187;DHT22;38161;53.020;6.598;2023-11-18T08:28:08;4.10;99.90
52187;DHT22;38161;53.020;6.598;2023-11-18T08:30:37;4.10;99.90
52187;DHT22;38161;53.020;6.598;2023-11-18T08:33:03;4.10;99.90
52187;DHT22;38161;53.020;6.598;2023-11-18T08:35:35;4.20;99.90
52187;DHT22;38161;53.020;6.598;2023-11-18T08:38:01;4.20;99.90
52187;DHT22;38161;53.020;6.598;2023-11-18T08:40:29;4.20;99.90
52187;DHT22;38161;53.020;6.598;2023-11-18T08:42:54;4.20;99.90
52187;DHT22;38161;53.020;6.598;2023-11-18T08:45:27;4.20;99.90
52187;DHT22;38161;53.020;6.598;2023-11-18T08:48:00;4.20;99.90
52187;DHT22;38161;53.020;6.598;2023-11-18T08:50:28;4.30;99.90
52187;DHT22;38161;53.020;6.598;2023-11-18T08:52:55;4.30;99.90
52187;DHT22;38161;53.020;6.598;2023-11-18T08:55:25;4.30;99.90
52187;DHT22;38161;53.020;6.598;2023-11-18T08:58:09;4.30;99.90
52187;DHT22;38161;53.020;6.598;2023-11-18T09:00:42;4.30;99.90
52187;DHT22;38161;53.020;6.598;2023-11-18T09:03:32;4.40;99.90
52187;DHT22;38161;53.020;6.598;2023-11-18T09:06:02;4.40;99.90
52187;DHT22;38161;53.020;6.598;2023-11-18T09:08:35;4.40;99.90
52187;DHT22;38161;53.020;6.598;2023-11-18T09:11:03;4.40;99.90
52187;DHT22;38161;53.020;6.598;2023-11-18T09:13:30;4.40;99.90
52187;DHT22;38161;53.020;6.598;2023-11-18T09:15:58;4.40;99.90
52187;DHT22;38161;53.020;6.598;2023-11-18T09:18:26;4.40;99.90
52187;DHT22;38161;53.020;6.598;2023-11-18T09:20:56;4.40;99.90
52187;DHT22;38161;53.020;6.598;2023-11-18T09:23:25;4.40;99.90
52187;DHT22;38161;53.020;6.598;2023-11-18T09:25:53;4.40;99.90
52187;DHT22;38161;53.020;6.598;2023-11-18T09:28:21;4.40;99.90
52187;DHT22;38161;53.020;6.598;2023-11-18T09:30:50;4.40;99.90
52187;DHT22;38161;53.020;6.598;2023-11-18T09:33:25;4.40;99.90
52187;DHT22;38161;53.020;6.598;2023-11-18T09:36:00;4.40;99.90
52187;DHT22;38161;53.020;6.598;2023-11-18T09:38:31;4.40;99.90
52187;DHT22;38161;53.020;6.598;2023-11-18T09:40:59;4.40;99.90
52187;DHT22;38161;53.020;6.598;2023-11-18T09:43:33;4.50;99.90
52187;DHT22;38161;53.020;6.598;2023-11-18T09:46:04;4.50;99.90
52187;DHT22;38161;53.020;6.598;2023-11-18T09:48:49;4.50;99.90
52187;DHT22;38161;53.020;6.598;2023-11-18T09:51:31;4.50;99.90
52187;DHT22;38161;53.020;6.598;2023-11-18T09:54:00;4.50;99.90
52187;DHT22;38161;53.020;6.598;2023-11-18T10:01:39;4.50;99.90
52187;DHT22;38161;53.020;6.598;2023-11-18T10:04:08;4.50;99.90
52187;DHT22;38161;53.020;6.598;2023-11-18T10:06:36;4.50;99.90
52187;DHT22;38161;53.020;6.598;2023-11-18T10:09:06;4.60;99.90
52187;DHT22;38161;53.020;6.598;2023-11-18T10:11:48;4.60;99.90
52187;DHT22;38161;53.020;6.598;2023-11-18T10:14:14;4.60;99.90
52187;DHT22;38161;53.020;6.598;2023-11-18T10:16:44;4.60;99.90
52187;DHT22;38161;53.020;6.598;2023-11-18T10:19:13;4.60;99.90
52187;DHT22;38161;53.020;6.598;2023-11-18T10:21:40;4.70;99.90
52187;DHT22;38161;53.020;6.598;2023-11-18T10:24:07;4.70;99.90
52187;DHT22;38161;53.020;6.598;2023-11-18T10:26:54;4.70;99.90
52187;DHT22;38161;53.020;6.598;2023-11-18T10:29:26;4.70;99.90
52187;DHT22;38161;53.020;6.598;2023-11-18T10:32:06;4.70;99.90
52187;DHT22;38161;53.020;6.598;2023-11-18T10:34:42;4.70;99.90
52187;DHT22;38161;53.020;6.598;2023-11-18T10:37:09;4.80;99.90
52187;DHT22;38161;53.020;6.598;2023-11-18T10:39:36;4.80;99.90
52187;DHT22;38161;53.020;6.598;2023-11-18T10:42:03;4.80;99.90
52187;DHT22;38161;53.020;6.598;2023-11-18T10:44:29;4.70;99.90
52187;DHT22;38161;53.020;6.598;2023-11-18T10:46:56;4.80;99.90
52187;DHT22;38161;53.020;6.598;2023-11-18T10:49:28;4.80;99.90
52187;DHT22;38161;53.020;6.598;2023-11-18T10:51:57;4.80;99.90
52187;DHT22;38161;53.020;6.598;2023-11-18T10:54:23;4.80;99.90
52187;DHT22;38161;53.020;6.598;2023-11-18T10:56:52;4.70;99.90
52187;DHT22;38161;53.020;6.598;2023-11-18T10:59:33;4.80;99.90
52187;DHT22;38161;53.020;6.598;2023-11-18T11:01:59;4.70;99.90
52187;DHT22;38161;53.020;6.598;2023-11-18T11:04:25;4.70;99.90
52187;DHT22;38161;53.020;6.598;2023-11-18T11:06:51;4.70;99.90
52187;DHT22;38161;53.020;6.598;2023-11-18T11:09:24;4.70;99.90
52187;DHT22;38161;53.020;6.598;2023-11-18T11:11:55;4.70;99.90
52187;DHT22;38161;53.020;6.598;2023-11-18T11:14:27;4.70;99.90
52187;DHT22;38161;53.020;6.598;2023-11-18T11:17:13;4.80;99.90
52187;DHT22;38161;53.020;6.598;2023-11-18T11:22:24;4.80;99.90
52187;DHT22;38161;53.020;6.598;2023-11-18T11:25:20;4.80;99.90
52187;DHT22;38161;53.020;6.598;2023-11-18T11:28:00;4.80;99.90
52187;DHT22;38161;53.020;6.598;2023-11-18T11:30:33;4.80;99.90
52187;DHT22;38161;53.020;6.598;2023-11-18T11:33:14;4.80;99.90
52187;DHT22;38161;53.020;6.598;2023-11-18T11:35:49;4.80;99.90
52187;DHT22;38161;53.020;6.598;2023-11-18T11:38:22;4.80;99.90
52187;DHT22;38161;53.020;6.598;2023-11-18T11:40:48;4.80;99.90
52187;DHT22;38161;53.020;6.598;2023-11-18T11:43:15;4.80;99.90
52187;DHT22;38161;53.020;6.598;2023-11-18T11:45:49;4.80;99.90
52187;DHT22;38161;53.020;6.598;2023-11-18T11:48:18;4.80;99.90
52187;DHT22;38161;53.020;6.598;2023-11-18T11:53:35;4.80;99.90
52187;DHT22;38161;53.020;6.598;2023-11-18T11:56:05;4.80;99.90
52187;DHT22;38161;53.020;6.598;2023-11-18T11:58:34;4.80;99.90
52187;DHT22;38161;53.020;6.598;2023-11-18T12:01:16;4.80;99.90
52187;DHT22;38161;53.020;6.598;2023-11-18T12:03:46;4.80;99.90
52187;DHT22;38161;53.020;6.598;2023-11-18T12:06:18;4.90;99.90
52187;DHT22;38161;53.020;6.598;2023-11-18T12:08:52;4.80;99.90
52187;DHT22;38161;53.020;6.598;2023-11-18T12:11:19;4.90;99.90
52187;DHT22;38161;53.020;6.598;2023-11-18T12:14:20;4.80;99.90
52187;DHT22;38161;53.020;6.598;2023-11-18T12:17:08;4.80;99.90
52187;DHT22;38161;53.020;6.598;2023-11-18T12:19:41;4.90;99.90
52187;DHT22;38161;53.020;6.598;2023-11-18T12:22:17;4.90;99.90
52187;DHT22;38161;53.020;6.598;2023-11-18T12:27:44;4.90;99.90
52187;DHT22;38161;53.020;6.598;2023-11-18T12:32:59;4.90;99.90
52187;DHT22;38161;53.020;6.598;2023-11-18T12:38:39;4.90;99.90
52187;DHT22;38161;53.020;6.598;2023-11-18T12:41:34;4.90;99.90
52187;DHT22;38161;53.020;6.598;2023-11-18T12:46:54;5.00;99.90
52187;DHT22;38161;53.020;6.598;2023-11-18T12:49:24;5.00;99.90
52187;DHT22;38161;53.020;6.598;2023-11-18T12:51:54;5.00;99.90
52187;DHT22;38161;53.020;6.598;2023-11-18T12:54:28;5.00;99.90
52187;DHT22;38161;53.020;6.598;2023-11-18T12:56:56;5.00;99.90
52187;DHT22;38161;53.020;6.598;2023-11-18T12:59:22;5.00;99.90
52187;DHT22;38161;53.020;6.598;2023-11-18T13:01:49;5.00;99.90
52187;DHT22;38161;53.020;6.598;2023-11-18T13:04:22;5.00;99.90
52187;DHT22;38161;53.020;6.598;2023-11-18T13:06:50;5.00;99.90
52187;DHT22;38161;53.020;6.598;2023-11-18T13:09:22;5.00;99.90
52187;DHT22;38161;53.020;6.598;2023-11-18T13:11:53;5.00;99.90
52187;DHT22;38161;53.020;6.598;2023-11-18T13:14:26;5.00;99.90
52187;DHT22;38161;53.020;6.598;2023-11-18T13:16:56;5.00;99.90
52187;DHT22;38161;53.020;6.598;2023-11-18T13:19:27;5.00;99.90
52187;DHT22;38161;53.020;6.598;2023-11-18T13:21:58;5.00;99.90
52187;DHT22;38161;53.020;6.598;2023-11-18T13:24:27;5.00;99.90
52187;DHT22;38161;53.020;6.598;2023-11-18T13:26:56;5.00;99.90
52187;DHT22;38161;53.020;6.598;2023-11-18T13:29:29;5.00;99.90
52187;DHT22;38161;53.020;6.598;2023-11-18T13:31:56;5.00;99.90
52187;DHT22;38161;53.020;6.598;2023-11-18T13:34:25;5.00;99.90
52187;DHT22;38161;53.020;6.598;2023-11-18T13:36:54;5.00;99.90
52187;DHT22;38161;53.020;6.598;2023-11-18T13:39:21;5.00;99.90
52187;DHT22;38161;53.020;6.598;2023-11-18T13:41:51;5.10;99.90
52187;DHT22;38161;53.020;6.598;2023-11-18T13:44:37;5.10;99.90
52187;DHT22;38161;53.020;6.598;2023-11-18T13:47:10;5.10;99.90
52187;DHT22;38161;53.020;6.598;2023-11-18T13:49:40;5.10;99.90
52187;DHT22;38161;53.020;6.598;2023-11-18T13:52:07;5.10;99.90
52187;DHT22;38161;53.020;6.598;2023-11-18T13:54:35;5.10;99.90
52187;DHT22;38161;53.020;6.598;2023-11-18T13:57:02;5.10;99.90
52187;DHT22;38161;53.020;6.598;2023-11-18T13:59:32;5.10;99.90
52187;DHT22;38161;53.020;6.598;2023-11-18T14:01:59;5.10;99.90
52187;DHT22;38161;53.020;6.598;2023-11-18T14:04:29;5.10;99.90
52187;DHT22;38161;53.020;6.598;2023-11-18T14:06:58;5.10;99.90
52187;DHT22;38161;53.020;6.598;2023-11-18T14:09:25;5.10;99.90
52187;DHT22;38161;53.020;6.598;2023-11-18T14:11:53;5.10;99.90
52187;DHT22;38161;53.020;6.598;2023-11-18T14:14:22;5.20;99.90
52187;DHT22;38161;53.020;6.598;2023-11-18T14:16:48;5.20;99.90
52187;DHT22;38161;53.020;6.598;2023-11-18T14:19:15;5.20;99.90
52187;DHT22;38161;53.020;6.598;2023-11-18T14:21:41;5.20;99.90
52187;DHT22;38161;53.020;6.598;2023-11-18T14:24:08;5.20;99.90
52187;DHT22;38161;53.020;6.598;2023-11-18T14:26:36;5.20;99.90
52187;DHT22;38161;53.020;6.598;2023-11-18T14:29:02;5.30;99.90
52187;DHT22;38161;53.020;6.598;2023-11-18T14:31:28;5.30;99.90
52187;DHT22;38161;53.020;6.598;2023-11-18T14:33:54;5.30;99.90
52187;DHT22;38161;53.020;6.598;2023-11-18T14:36:28;5.30;99.90
52187;DHT22;38161;53.020;6.598;2023-11-18T14:38:54;5.30;99.90
52187;DHT22;38161;53.020;6.598;2023-11-18T14:41:26;5.30;99.90
52187;DHT22;38161;53.020;6.598;2023-11-18T14:43:53;5.30;99.90
52187;DHT22;38161;53.020;6.598;2023-11-18T14:46:19;5.30;99.90
52187;DHT22;38161;53.020;6.598;2023-11-18T14:48:45;5.30;99.90
52187;DHT22;38161;53.020;6.598;2023-11-18T14:51:12;5.30;99.90
52187;DHT22;38161;53.020;6.598;2023-11-18T14:53:38;5.30;99.90
52187;DHT22;38161;53.020;6.598;2023-11-18T14:56:04;5.40;99.90
52187;DHT22;38161;53.020;6.598;2023-11-18T14:58:32;5.30;99.90
52187;DHT22;38161;53.020;6.598;2023-11-18T15:00:59;5.40;99.90
52187;DHT22;38161;53.020;6.598;2023-11-18T15:03:26;5.40;99.90
52187;DHT22;38161;53.020;6.598;2023-11-18T15:05:52;5.40;99.90
52187;DHT22;38161;53.020;6.598;2023-11-18T15:08:17;5.40;99.90
52187;DHT22;38161;53.020;6.598;2023-11-18T15:10:43;5.40;99.90
52187;DHT22;38161;53.020;6.598;2023-11-18T15:13:10;5.40;99.90
52187;DHT22;38161;53.020;6.598;2023-11-18T15:15:41;5.40;99.90
52187;DHT22;38161;53.020;6.598;2023-11-18T15:18:08;5.50;99.90
52187;DHT22;38161;53.020;6.598;2023-11-18T15:20:45;5.50;99.90
52187;DHT22;38161;53.020;6.598;2023-11-18T15:23:13;5.50;99.90
52187;DHT22;38161;53.020;6.598;2023-11-18T15:25:39;5.50;99.90
52187;DHT22;38161;53.020;6.598;2023-11-18T15:28:06;5.50;99.90
52187;DHT22;38161;53.020;6.598;2023-11-18T15:30:36;5.50;99.90
52187;DHT22;38161;53.020;6.598;2023-11-18T15:33:03;5.50;99.90
52187;DHT22;38161;53.020;6.598;2023-11-18T15:35:29;5.50;99.90
52187;DHT22;38161;53.020;6.598;2023-11-18T15:37:55;5.50;99.90
52187;DHT22;38161;53.020;6.598;2023-11-18T15:40:21;5.60;99.90
52187;DHT22;38161;53.020;6.598;2023-11-18T15:42:51;5.60;99.90
52187;DHT22;38161;53.020;6.598;2023-11-18T15:45:17;5.60;99.90
52187;DHT22;38161;53.020;6.598;2023-11-18T15:47:44;5.60;99.90
52187;DHT22;38161;53.020;6.598;2023-11-18T15:50:11;5.60;99.90
52187;DHT22;38161;53.020;6.598;2023-11-18T15:52:45;5.60;99.90
52187;DHT22;38161;53.020;6.598;2023-11-18T15:55:11;5.60;99.90
52187;DHT22;38161;53.020;6.598;2023-11-18T15:57:41;5.60;99.90
52187;DHT22;38161;53.020;6.598;2023-11-18T16:00:09;5.70;99.90
52187;DHT22;38161;53.020;6.598;2023-11-18T16:02:48;5.60;99.90
52187;DHT22;38161;53.020;6.598;2023-11-18T16:05:15;5.70;99.90
52187;DHT22;38161;53.020;6.598;2023-11-18T16:07:43;5.70;99.90
52187;DHT22;38161;53.020;6.598;2023-11-18T16:10:11;5.70;99.90
52187;DHT22;38161;53.020;6.598;2023-11-18T16:13:04;5.70;99.90
52187;DHT22;38161;53.020;6.598;2023-11-18T16:15:30;5.70;99.90
52187;DHT22;38161;53.020;6.598;2023-11-18T16:17:58;5.70;99.90
52187;DHT22;38161;53.020;6.598;2023-11-18T16:20:29;5.80;99.90